Pearl, IL (62361)

10:33 PM CDT on August 29, 2015 (GMT -0500)
Katie Hollow | | Change Station
CLOSE
Current Station
Personal Weather Station
Location: Kampsville, IL
Elevation: 545 ft
Nearby Weather Stations

Elev 545 ft 39.30 °N, 90.71 °W | Updated 42 seconds ago

Overcast
Overcast
69.8 °F
Feels Like 69.8 °F
N
0.0
Wind Variable Wind from West
Gusts 1.0 mph

Today
High -- | Low -- °F
--% Chance of Precip.
Yesterday
High -- | Low -- °F
Precip. -- in
6:28 AM 7:38 PM
Full, 100% visible
Pressure 30.03 in
Visibility 7.0 miles
Clouds Clear
Dew Point 68 °F
Humidity 95%
Rainfall 0.27 in
Snow Depth Not available.
UV 0 out of 12
Pollen 1.70 out of 12
Air Quality Not available.
Flu Activity Not available.
METAR KPPQ 300315Z AUTO 00000KT 7SM CLR 23/21 A3003 RMK AO2 T02260208
Pressure 30.03 in
Visibility 7.0 miles
Clouds Clear
Dew Point 68 °F
Humidity 95%
Rainfall 0.27 in
Snow Depth Not available.
UV 0 out of 12
Pollen 1.70 out of 12
Air Quality Not available.
Flu Activity Not available.
METAR KPPQ 300315Z AUTO 00000KT 7SM CLR 23/21 A3003 RMK AO2 T02260208

10-Day Weather Forecast

×

Almanac

Astronomy

Aug. 29, 2015 Rise Set
Actual Time
Civil Twilight
Nautical Twilight
Astronomical Twilight
Moon
Length of Visible Light
Length of Day
Tomorrow will be .
, % of the Moon is Illuminated

Today's Extremes

State Highs State Lows

Community

WunderPhotos

Upload Photos

1,850,870 photos uploaded!

WunderBlogs® & News

Nearby

Air Quality

  Air Quality AQ Index Pollutant
Not available.

Snow Depth

Station Depth Elevation

Earthquake Activity

City Distance Mag. Time & Date
Minimum magnitude displayed is 2.5.

Coastal Water Temperatures

Place Temperature

Stations

Nearby Weather Stations

Station Location Temp. Windchill Dew Point Humidity Wind Precip. Elev Updated Type